createdAt,value
2023-01-13T00:05:38.617Z,52.17
2023-01-13T00:11:55.835Z,53.38
2023-01-13T00:18:24.777Z,54.71
2023-01-13T00:24:39.561Z,56.03
2023-01-13T00:30:59.552Z,56.94
2023-01-13T00:37:04.228Z,57.79
2023-01-13T00:43:22.385Z,58.63
2023-01-13T00:49:49.682Z,59.41
2023-01-13T00:56:24.425Z,60.04
2023-01-13T01:02:55.698Z,60.56
2023-01-13T01:10:03.910Z,60.78
2023-01-13T01:16:40.951Z,61.24
2023-01-13T01:28:59.905Z,71.31
2023-01-13T01:35:07.548Z,58.92
2023-01-13T01:41:36.966Z,50.44
2023-01-13T01:48:29.066Z,51.74
2023-01-13T02:01:28.465Z,54.81
2023-01-13T02:15:13.053Z,57.02
2023-01-13T02:43:25.258Z,68.67
2023-01-13T02:55:48.389Z,51.71
2023-01-13T03:07:56.752Z,55.05
2023-01-13T03:21:39.762Z,56.83
2023-01-13T03:28:28.956Z,58.07
2023-01-13T03:35:33.936Z,59.07
2023-01-13T03:56:41.221Z,57.13
2023-01-13T04:03:31.663Z,51.89
2023-01-13T04:09:28.005Z,53.58
2023-01-13T04:37:07.933Z,57.77
2023-01-13T04:44:02.789Z,58.44
2023-01-13T04:56:20.690Z,60.74
2023-01-13T05:02:23.106Z,60.02
2023-01-13T05:15:51.002Z,60.41
2023-01-13T05:26:19.621Z,60.36
2023-01-13T05:36:55.937Z,60.65
2023-01-13T06:06:37.841Z,60.43
2023-01-13T06:39:15.148Z,60.48
2023-01-13T06:41:44.831Z,60.38
2023-01-13T06:48:03.778Z,60.55
2023-01-13T07:22:34.231Z,60.71
2023-01-13T07:52:09.409Z,60.63
2023-01-13T07:57:13.987Z,60.62
2023-01-13T08:24:59.221Z,60.44
2023-01-13T08:30:56.796Z,60.46
2023-01-13T08:36:13.039Z,60.14
2023-01-13T08:41:40.231Z,59.63
2023-01-13T08:48:04.484Z,59.40
2023-01-13T08:53:38.632Z,59.22
2023-01-13T08:59:32.523Z,59.26
2023-01-13T09:05:09.593Z,59.08
2023-01-13T09:10:56.511Z,58.91
2023-01-13T09:16:42.384Z,58.39
2023-01-13T09:23:09.868Z,57.87
2023-01-13T09:29:08.393Z,57.18
2023-01-13T09:35:18.114Z,57.42
2023-01-13T09:40:58.587Z,56.78
2023-01-13T09:47:05.139Z,56.46
2023-01-13T09:52:58.122Z,56.14
2023-01-13T09:59:23.535Z,55.34
2023-01-13T10:04:50.953Z,55.68
2023-01-13T10:10:32.320Z,54.62
2023-01-13T10:17:12.405Z,54.46
2023-01-13T10:23:44.279Z,54.09
2023-01-13T10:30:24.756Z,53.89
2023-01-13T10:37:08.663Z,54.25
2023-01-13T10:42:49.531Z,53.50
2023-01-13T10:49:20.879Z,52.99
2023-01-13T10:55:07.698Z,53.26
2023-01-13T11:00:48.140Z,52.66
2023-01-13T11:07:28.299Z,52.78
2023-01-13T11:12:58.604Z,52.60
2023-01-13T11:19:31.655Z,52.83
2023-01-13T11:25:38.859Z,52.41
2023-01-13T11:39:39.632Z,52.01
2023-01-13T11:46:10.539Z,52.24
2023-01-13T13:06:34.761Z,51.10
2023-01-13T13:12:44.674Z,50.77
2023-01-13T13:18:46.160Z,50.88
2023-01-13T13:24:56.849Z,51.23
2023-01-13T13:30:57.688Z,51.21
2023-01-13T13:36:48.436Z,51.21
2023-01-13T13:43:14.813Z,51.23
2023-01-13T13:48:55.512Z,51.23
2023-01-13T13:55:02.559Z,51.37
2023-01-13T14:01:17.202Z,51.48
2023-01-13T14:13:57.418Z,51.49
2023-01-13T14:20:09.467Z,51.60
2023-01-13T14:26:35.667Z,51.64
2023-01-13T14:32:05.392Z,51.61
2023-01-13T14:38:33.592Z,51.39
2023-01-13T14:44:04.142Z,51.52
2023-01-13T14:55:16.161Z,51.82
2023-01-13T15:01:19.693Z,51.70
2023-01-13T15:07:49.484Z,51.70
2023-01-13T15:12:58.086Z,51.91
2023-01-13T15:19:04.033Z,52.09
2023-01-13T15:25:21.409Z,52.15
2023-01-13T15:31:47.971Z,52.15
2023-01-13T15:37:26.218Z,52.05
2023-01-13T15:43:33.307Z,52.34
2023-01-13T15:49:22.112Z,52.21
2023-01-13T16:02:12.029Z,52.11
2023-01-13T16:09:05.364Z,52.22
2023-01-13T16:15:28.050Z,52.17
2023-01-13T16:29:32.351Z,52.22
2023-01-13T16:42:24.148Z,52.25
2023-01-13T16:56:31.455Z,52.27
2023-01-13T17:03:04.305Z,52.32
2023-01-13T17:16:27.077Z,52.54
2023-01-13T17:34:57.452Z,53.20
2023-01-13T17:40:31.044Z,53.48
2023-01-13T17:45:46.916Z,53.73
2023-01-13T17:55:40.269Z,54.15
2023-01-13T18:00:57.108Z,53.98
2023-01-13T18:06:18.178Z,53.99
2023-01-13T18:12:14.971Z,54.11
2023-01-13T18:17:19.196Z,54.16
2023-01-13T18:22:52.593Z,54.36
2023-01-13T18:29:16.585Z,54.45
2023-01-13T18:35:04.707Z,54.61
2023-01-13T18:41:45.752Z,54.94
2023-01-13T18:47:20.446Z,55.12
2023-01-13T19:56:17.663Z,57.02
2023-01-13T20:03:44.400Z,57.65
2023-01-13T20:08:33.923Z,58.76
2023-01-13T20:14:04.852Z,59.97
2023-01-13T20:19:14.496Z,60.13
2023-01-13T20:25:20.409Z,61.37
2023-01-13T20:31:21.133Z,68.36
2023-01-13T20:37:03.016Z,62.16
2023-01-13T20:42:29.703Z,53.85
2023-01-13T20:49:30.637Z,54.16
2023-01-13T20:54:58.596Z,55.72
2023-01-13T21:01:11.892Z,57.10
2023-01-13T21:07:10.087Z,59.99
2023-01-13T21:14:14.031Z,65.55
2023-01-13T21:19:21.703Z,57.11
2023-01-13T21:25:53.674Z,55.73
2023-01-13T21:32:30.720Z,58.48
2023-01-13T21:38:08.126Z,61.18
2023-01-13T21:44:24.975Z,66.32
2023-01-13T21:50:45.059Z,60.89
2023-01-13T21:56:27.692Z,53.49
2023-01-13T22:03:32.614Z,54.57
2023-01-13T22:09:48.119Z,56.22
2023-01-13T22:14:57.184Z,57.95
2023-01-13T22:33:28.445Z,68.65
2023-01-13T22:40:09.444Z,58.71
2023-01-13T22:52:30.754Z,54.38
2023-01-13T22:58:52.128Z,56.30
2023-01-13T23:05:10.512Z,56.87
2023-01-13T23:10:41.856Z,58.27
2023-01-13T23:16:56.152Z,59.31
2023-01-13T23:23:19.954Z,59.73
2023-01-13T23:31:22.509Z,59.97
2023-01-13T23:38:27.087Z,60.72
2023-01-13T23:43:20.423Z,60.98
2023-01-13T23:55:18.105Z,60.01
